Time;durP1;ratioP1;P1;durP2;ratioP2;P2;SDS_P1;SDS_P2;PMS_P1;PMS_P2;Temp;Humidity;BMP_temperature;BMP_pressure;BME280_temperature;BME280_humidity;BME280_pressure;Samples;Min_cycle;Max_cycle;Signal;HPM_P1;HPM_P2
2022/01/10 00:03:54;;;;;;;33.83;10.23;;;;;;;0.52;68.78;99351.16;10468756;28;20046;-67
2022/01/10 00:08:56;;;;;;;28.65;9.15;;;;;;;0.45;68.92;99364.25;10467983;28;20056;-66
2022/01/10 00:13:58;;;;;;;22.98;7.03;;;;;;;0.41;69.18;99383.22;10467876;28;20094;-66
2022/01/10 00:18:59;;;;;;;19.05;5.75;;;;;;;0.37;69.34;99389.34;10467825;28;20075;-67
2022/01/10 00:24:01;;;;;;;21.42;6.05;;;;;;;0.39;69.13;99387.56;10467764;28;20048;-66
2022/01/10 00:29:03;;;;;;;22.10;6.43;;;;;;;0.40;69.19;99382.38;10467185;28;20060;-67
2022/01/10 00:34:05;;;;;;;25.30;6.78;;;;;;;0.51;68.91;99395.78;10467924;28;20132;-67
2022/01/10 00:39:06;;;;;;;19.20;6.53;;;;;;;0.50;68.87;99399.22;10466867;28;20058;-67
2022/01/10 00:44:10;;;;;;;19.15;5.72;;;;;;;0.44;68.97;99401.97;10466907;28;20135;-66
2022/01/10 00:49:11;;;;;;;22.58;7.43;;;;;;;0.41;68.85;99409.78;10467148;28;20151;-66
2022/01/10 00:54:13;;;;;;;20.48;7.38;;;;;;;0.34;69.08;99415.16;10449872;28;20051;-66
2022/01/10 00:59:15;;;;;;;29.88;6.50;;;;;;;0.29;69.38;99422.13;10465947;28;20056;-66
2022/01/10 01:04:17;;;;;;;17.10;5.80;;;;;;;0.30;69.19;99434.94;10466031;28;20131;-66
2022/01/10 01:09:24;;;;;;;19.83;6.57;;;;;;;0.31;69.02;99443.50;10466576;28;20074;-66
2022/01/10 01:14:48;;;;;;;21.02;7.53;;;;;;;0.36;69.15;99450.22;10466212;28;20139;-66
2022/01/10 01:24:58;;;;;;;21.15;6.70;;;;;;;0.46;68.83;99464.50;10474974;28;19924;-66
2022/01/10 01:30:00;;;;;;;14.18;6.03;;;;;;;0.62;68.65;99477.84;10456403;28;20066;-66
2022/01/10 01:35:06;;;;;;;15.20;5.70;;;;;;;0.68;68.54;99490.53;10473566;28;20142;-66
2022/01/10 01:40:09;;;;;;;18.50;5.57;;;;;;;0.72;68.54;99484.41;10456532;28;20496;-66
2022/01/10 01:45:12;;;;;;;25.65;8.10;;;;;;;0.73;68.45;99487.84;10473593;28;20087;-66
2022/01/10 01:50:14;;;;;;;23.35;6.88;;;;;;;0.75;68.38;99498.94;10474295;28;20075;-66
2022/01/10 01:55:16;;;;;;;19.92;6.78;;;;;;;0.83;68.66;99510.69;10474001;28;20134;-66
2022/01/10 02:00:19;;;;;;;14.82;6.28;;;;;;;0.90;68.49;99525.09;10472705;28;20488;-66
2022/01/10 02:05:21;;;;;;;18.65;5.15;;;;;;;0.89;68.49;99527.72;10473631;28;20238;-66
2022/01/10 02:10:23;;;;;;;16.35;6.40;;;;;;;1.02;68.24;99544.50;10473514;28;20064;-66
2022/01/10 02:15:41;;;;;;;20.70;6.85;;;;;;;1.09;68.10;99552.03;10472479;28;20061;-67
2022/01/10 02:20:43;;;;;;;17.15;6.05;;;;;;;1.11;68.11;99546.84;10473175;28;20084;-66
2022/01/10 02:25:46;;;;;;;13.50;5.85;;;;;;;1.09;67.93;99546.03;10473155;28;20061;-67
2022/01/10 02:30:55;;;;;;;13.35;5.60;;;;;;;0.89;68.02;99556.03;10470873;28;20147;-66
2022/01/10 02:41:29;;;;;;;13.68;5.25;;;;;;;0.74;68.31;99579.59;10472227;28;20131;-66
2022/01/10 02:46:34;;;;;;;17.50;6.00;;;;;;;0.65;68.43;99593.53;10471467;28;20873;-67
2022/01/10 02:51:36;;;;;;;31.98;7.20;;;;;;;0.41;68.66;99597.56;10470482;28;20078;-66
2022/01/10 02:56:53;;;;;;;25.58;7.97;;;;;;;0.37;68.81;99610.53;10470948;28;20048;-66
2022/01/10 03:01:55;;;;;;;15.27;6.30;;;;;;;0.41;68.47;99619.88;10472342;28;20167;-66
2022/01/10 03:06:58;;;;;;;18.95;7.20;;;;;;;0.40;68.72;99636.19;10478702;28;20139;-66
2022/01/10 03:12:00;;;;;;;22.58;9.13;;;;;;;0.19;68.78;99642.69;10478749;28;20087;-66
2022/01/10 03:17:02;;;;;;;20.17;9.48;;;;;;;0.13;69.10;99660.81;10477543;28;20052;-66
2022/01/10 03:22:04;;;;;;;18.67;8.43;;;;;;;0.15;69.42;99669.34;10477545;28;20053;-66
2022/01/10 03:27:06;;;;;;;21.65;7.63;;;;;;;0.34;69.56;99680.06;10459517;28;20092;-66
2022/01/10 03:32:09;;;;;;;22.35;8.45;;;;;;;0.51;69.42;99681.34;10459992;28;20163;-66
2022/01/10 03:37:11;;;;;;;23.75;9.57;;;;;;;0.68;69.14;99687.84;10459188;28;21097;-66
2022/01/10 03:42:13;;;;;;;23.92;10.40;;;;;;;0.80;68.83;99696.13;10476202;28;20059;-66
2022/01/10 03:47:17;;;;;;;29.80;12.90;;;;;;;0.76;68.83;99702.22;10476650;28;20056;-66
2022/01/10 03:52:19;;;;;;;24.90;12.68;;;;;;;0.81;68.87;99705.50;10476070;28;20661;-66
2022/01/10 03:57:21;;;;;;;25.65;10.68;;;;;;;0.86;68.90;99711.41;10476187;28;20064;-65
2022/01/10 04:02:25;;;;;;;22.48;9.38;;;;;;;0.86;69.23;99714.00;10474998;28;20051;-66
2022/01/10 04:07:27;;;;;;;23.55;11.15;;;;;;;1.08;68.56;99717.72;10454500;28;20052;-66
2022/01/10 04:12:29;;;;;;;31.02;13.63;;;;;;;1.22;68.55;99727.69;10468464;28;20715;-66
2022/01/10 04:17:31;;;;;;;27.85;12.20;;;;;;;1.29;68.10;99727.50;10469273;28;20550;-65
2022/01/10 04:22:32;;;;;;;24.20;9.88;;;;;;;1.25;68.15;99732.75;10469495;28;20056;-66
2022/01/10 04:27:34;;;;;;;24.33;9.35;;;;;;;1.09;68.43;99749.50;10451296;28;20106;-66
2022/01/10 04:32:37;;;;;;;26.17;10.95;;;;;;;0.95;68.51;99757.50;10468434;28;20564;-67
2022/01/10 04:37:39;;;;;;;20.52;8.90;;;;;;;0.78;68.71;99769.09;10468755;28;20064;-67
2022/01/10 04:42:41;;;;;;;19.50;9.02;;;;;;;0.87;68.54;99772.31;10468154;28;20052;-66
2022/01/10 04:47:43;;;;;;;27.40;11.10;;;;;;;0.80;68.12;99775.06;10467586;28;20135;-66
2022/01/10 04:52:45;;;;;;;20.67;10.23;;;;;;;0.52;68.23;99785.13;10467723;28;20135;-66
2022/01/10 04:57:47;;;;;;;27.40;9.20;;;;;;;0.30;69.04;99795.00;10467528;28;20082;-66
2022/01/10 05:02:51;;;;;;;21.88;8.75;;;;;;;0.14;69.47;99803.06;10468088;28;20048;-66
2022/01/10 05:07:52;;;;;;;19.80;7.00;;;;;;;0.10;69.53;99812.56;10467609;28;20645;-66
2022/01/10 05:12:54;;;;;;;18.05;7.75;;;;;;;0.06;69.45;99821.22;10450619;28;20160;-66
2022/01/10 05:17:56;;;;;;;15.82;6.28;;;;;;;-0.02;69.57;99828.22;10467254;28;20048;-66
2022/01/10 05:22:58;;;;;;;17.45;8.20;;;;;;;-0.05;69.67;99830.88;10467629;28;20044;-66
2022/01/10 05:27:59;;;;;;;20.75;7.70;;;;;;;-0.07;69.69;99845.47;10467502;28;20167;-66
2022/01/10 05:33:01;;;;;;;18.88;6.75;;;;;;;-0.13;69.98;99855.00;10467537;28;20052;-66
2022/01/10 05:38:03;;;;;;;15.23;6.55;;;;;;;-0.12;70.15;99867.81;10449012;28;20497;-66
2022/01/10 05:43:05;;;;;;;20.60;6.32;;;;;;;-0.15;70.18;99879.88;10467480;28;20163;-66
2022/01/10 05:48:11;;;;;;;17.65;7.20;;;;;;;-0.14;70.04;99899.56;10448775;28;20595;-66
2022/01/10 05:53:13;;;;;;;26.08;11.40;;;;;;;-0.18;70.28;99908.19;10466527;28;20052;-66
2022/01/10 05:58:16;;;;;;;18.52;9.60;;;;;;;-0.18;70.16;99910.75;10466079;28;20076;-66
2022/01/10 06:03:18;;;;;;;20.30;8.25;;;;;;;-0.24;70.16;99926.28;10451885;28;20163;-66
2022/01/10 06:08:20;;;;;;;22.58;8.25;;;;;;;-0.36;70.10;99935.03;10473087;28;20109;-66
2022/01/10 06:13:21;;;;;;;20.98;8.85;;;;;;;-0.37;70.36;99939.34;10473796;28;20060;-66
2022/01/10 06:18:23;;;;;;;53.28;8.45;;;;;;;-0.33;70.18;99955.53;10473431;28;20108;-66
2022/01/10 06:23:25;;;;;;;316.90;13.43;;;;;;;-0.40;70.49;99965.09;10473249;28;20155;-66
2022/01/10 06:28:27;;;;;;;182.25;12.40;;;;;;;-0.40;70.44;99966.81;10473551;28;20100;-66
2022/01/10 06:33:29;;;;;;;192.93;12.73;;;;;;;-0.34;70.15;99985.56;10472781;28;20048;-66
2022/01/10 06:38:30;;;;;;;238.88;13.57;;;;;;;-0.41;69.96;99990.78;10473939;28;20160;-66
2022/01/10 06:43:32;;;;;;;453.70;19.27;;;;;;;-0.40;69.98;100006.19;10455103;28;20071;-66
2022/01/10 06:48:34;;;;;;;332.65;15.13;;;;;;;-0.46;70.00;100016.56;10454889;28;20055;-66
2022/01/10 06:53:36;;;;;;;502.98;37.13;;;;;;;-0.65;69.71;100033.06;10454330;28;20131;-66
2022/01/10 06:58:37;;;;;;;373.13;16.13;;;;;;;-0.65;70.20;100033.06;10471390;28;20127;-66
2022/01/10 07:03:39;;;;;;;274.45;14.32;;;;;;;-0.56;70.16;100040.69;10453252;28;20136;-66
2022/01/10 07:08:41;;;;;;;170.02;11.55;;;;;;;-0.50;69.98;100053.44;10471911;28;20062;-66
2022/01/10 07:13:46;;;;;;;138.38;9.68;;;;;;;-0.46;69.98;100056.81;10471680;28;20133;-66
2022/01/10 07:18:47;;;;;;;271.83;16.95;;;;;;;-0.51;69.90;100062.00;10471258;28;20056;-66
2022/01/10 07:23:49;;;;;;;226.13;14.88;;;;;;;-0.54;70.10;100076.59;10453383;28;20056;-66
2022/01/10 07:28:51;;;;;;;427.30;21.50;;;;;;;-0.51;69.92;100092.81;10471035;28;20147;-66
2022/01/10 07:33:54;;;;;;;194.02;13.75;;;;;;;-0.50;69.87;100103.97;10470651;28;20505;-66
2022/01/10 07:38:56;;;;;;;251.10;13.63;;;;;;;-0.52;69.75;100114.25;10471096;28;20060;-66
2022/01/10 07:43:59;;;;;;;346.63;17.00;;;;;;;-0.54;69.63;100112.56;10469323;28;20524;-66
2022/01/10 07:49:01;;;;;;;228.20;15.30;;;;;;;-0.55;69.56;100126.25;10470525;28;20060;-66
2022/01/10 07:54:02;;;;;;;126.97;10.30;;;;;;;-0.56;69.98;100137.41;10469232;28;20140;-66
2022/01/10 07:59:04;;;;;;;401.80;18.88;;;;;;;-0.42;69.76;100156.94;10469509;28;20083;-66
2022/01/10 08:04:06;;;;;;;367.02;15.45;;;;;;;-0.37;69.47;100165.44;10470217;28;20082;-66
2022/01/10 08:09:08;;;;;;;129.15;11.18;;;;;;;-0.43;69.73;100178.34;10452143;28;20144;-66
2022/01/10 08:14:10;;;;;;;211.90;14.75;;;;;;;-0.27;69.85;100184.19;10469130;28;20136;-66
2022/01/10 08:19:12;;;;;;;88.00;9.95;;;;;;;-0.13;69.38;100197.72;10468614;28;20291;-66
2022/01/10 08:24:14;;;;;;;163.88;13.13;;;;;;;-0.11;69.35;100208.84;10451089;28;20473;-66
2022/01/10 08:29:16;;;;;;;145.00;11.60;;;;;;;-0.11;69.53;100213.13;10467708;28;20555;-66
2022/01/10 08:34:18;;;;;;;167.30;11.10;;;;;;;-0.07;69.56;100241.34;10467889;28;20044;-66
2022/01/10 08:39:20;;;;;;;114.03;9.80;;;;;;;-0.04;69.77;100240.44;10467701;28;20147;-66
2022/01/10 08:44:22;;;;;;;138.82;9.32;;;;;;;0.12;69.55;100263.38;10468395;28;20144;-66
2022/01/10 08:49:24;;;;;;;114.93;10.30;;;;;;;0.18;69.52;100265.03;10450213;28;20059;-66
2022/01/10 08:54:26;;;;;;;122.18;9.13;;;;;;;0.22;69.45;100261.56;10467378;28;20056;-66
2022/01/10 08:59:28;;;;;;;101.70;8.88;;;;;;;0.49;69.33;100267.19;10449536;28;20143;-66
2022/01/10 09:04:30;;;;;;;55.53;8.98;;;;;;;0.39;69.27;100282.75;10467903;28;20161;-66
2022/01/10 09:09:35;;;;;;;141.25;12.00;;;;;;;0.34;69.42;100292.25;10467385;28;20146;-67
2022/01/10 09:14:37;;;;;;;102.15;11.25;;;;;;;0.42;69.64;100293.03;10467582;28;20168;-66
2022/01/10 09:19:39;;;;;;;68.95;9.45;;;;;;;0.60;69.34;100307.34;10467551;28;20052;-66
2022/01/10 09:24:46;;;;;;;56.53;9.13;;;;;;;0.72;69.35;100320.06;10467453;28;20049;-66
2022/01/10 09:29:49;;;;;;;84.25;10.30;;;;;;;0.91;69.06;100324.09;10467055;28;20063;-63
2022/01/10 09:34:51;;;;;;;82.32;10.20;;;;;;;1.17;68.76;100334.84;10467018;28;20079;-63
2022/01/10 09:39:53;;;;;;;33.10;10.43;;;;;;;1.34;68.28;100351.72;10472359;28;20041;-64
2022/01/10 09:44:55;;;;;;;40.85;10.38;;;;;;;1.24;68.37;100350.16;10462785;28;20587;-63
2022/01/10 09:49:57;;;;;;;21.17;9.93;;;;;;;1.30;68.56;100365.53;10471866;28;20064;-63
2022/01/10 09:54:59;;;;;;;26.52;10.15;;;;;;;1.52;68.31;100366.06;10469802;28;20052;-63
2022/01/10 10:00:01;;;;;;;22.02;10.07;;;;;;;1.71;67.95;100374.31;10429418;28;20061;-64
2022/01/10 10:05:09;;;;;;;22.70;10.70;;;;;;;1.85;67.74;100386.09;10412438;28;20141;-63
2022/01/10 10:10:13;;;;;;;23.38;13.38;;;;;;;2.04;67.44;100395.25;10431504;28;20080;-63
2022/01/10 10:15:18;;;;;;;23.13;11.45;;;;;;;2.17;67.32;100403.63;10430149;28;20049;-63
2022/01/10 10:20:22;;;;;;;20.67;10.75;;;;;;;2.30;67.23;100399.09;10430406;28;20045;-64
2022/01/10 10:25:53;;;;;;;30.75;13.45;;;;;;;2.43;67.08;100403.97;10430560;28;20520;-63
2022/01/10 10:30:58;;;;;;;23.73;13.30;;;;;;;2.53;66.86;100397.75;10428508;28;20633;-64
2022/01/10 10:36:08;;;;;;;32.55;15.70;;;;;;;2.41;67.02;100405.72;10429684;28;20220;-63
2022/01/10 10:41:10;;;;;;;24.77;13.20;;;;;;;2.56;67.18;100420.91;10430263;28;20056;-63
2022/01/10 10:46:16;;;;;;;25.95;13.85;;;;;;;2.63;66.98;100432.84;10428278;28;20045;-63
2022/01/10 10:51:19;;;;;;;29.83;14.13;;;;;;;2.71;67.04;100436.13;10428663;28;20057;-64
2022/01/10 10:56:23;;;;;;;26.20;13.07;;;;;;;2.76;67.15;100447.22;10425508;28;20148;-63
2022/01/10 11:01:25;;;;;;;30.35;14.20;;;;;;;2.67;66.92;100452.56;10468691;28;20113;-64
2022/01/10 11:06:29;;;;;;;32.40;15.40;;;;;;;2.70;66.87;100451.66;10470130;28;20060;-63
2022/01/10 11:11:31;;;;;;;27.20;14.43;;;;;;;2.69;67.00;100455.94;10464636;28;20071;-64
2022/01/10 11:16:36;;;;;;;28.13;14.57;;;;;;;2.73;66.78;100467.94;10467075;28;20539;-63
2022/01/10 11:21:40;;;;;;;31.15;14.82;;;;;;;2.82;66.38;100477.22;10466108;28;20555;-63
2022/01/10 11:26:45;;;;;;;23.42;14.20;;;;;;;2.81;66.34;100491.88;10464862;28;20412;-63
2022/01/10 11:31:47;;;;;;;28.80;13.45;;;;;;;2.84;66.51;100501.31;10468586;28;20052;-63
2022/01/10 11:36:50;;;;;;;31.58;13.52;;;;;;;3.10;65.91;100495.59;10467974;28;20556;-63
2022/01/10 11:41:54;;;;;;;21.73;12.95;;;;;;;3.20;65.50;100505.72;10467373;28;20139;-63
2022/01/10 11:46:58;;;;;;;25.33;13.82;;;;;;;3.18;65.66;100511.81;10467561;28;20153;-63
2022/01/10 11:52:01;;;;;;;23.75;12.38;;;;;;;3.21;65.69;100517.78;10450034;28;20056;-63
2022/01/10 11:57:05;;;;;;;25.52;12.75;;;;;;;3.14;65.40;100508.44;10464727;28;20531;-64
2022/01/10 12:02:12;;;;;;;27.33;13.70;;;;;;;3.29;65.10;100509.84;10464981;28;20058;-63
2022/01/10 12:07:24;;;;;;;25.00;14.18;;;;;;;3.42;65.26;100508.69;10467179;28;20048;-63
2022/01/10 12:12:30;;;;;;;27.42;14.02;;;;;;;3.39;65.38;100519.97;10464952;28;20071;-63
2022/01/10 12:17:34;;;;;;;25.17;13.73;;;;;;;3.36;65.48;100519.16;10463615;28;20437;-63
2022/01/10 12:22:36;;;;;;;29.65;14.77;;;;;;;3.48;65.08;100522.34;10466846;28;20052;-64
2022/01/10 12:27:38;;;;;;;29.27;14.07;;;;;;;3.48;65.12;100529.25;10466483;28;20139;-64
2022/01/10 12:32:42;;;;;;;26.90;13.48;;;;;;;3.54;64.98;100531.69;10466611;28;20056;-64
2022/01/10 12:37:44;;;;;;;24.20;14.10;;;;;;;3.49;64.43;100538.72;10465928;28;20060;-63
2022/01/10 12:42:48;;;;;;;28.40;13.38;;;;;;;3.43;64.48;100539.72;10466390;28;20143;-63
2022/01/10 12:47:50;;;;;;;25.90;12.75;;;;;;;3.35;64.49;100558.84;10465637;28;20084;-63
2022/01/10 12:52:55;;;;;;;29.02;13.27;;;;;;;3.38;64.57;100566.53;10466837;28;20100;-64
2022/01/10 12:57:57;;;;;;;27.02;13.30;;;;;;;3.50;64.79;100576.59;10463132;28;20194;-63
2022/01/10 13:03:03;;;;;;;28.38;12.20;;;;;;;3.61;64.03;100585.00;10463587;28;20063;-63
2022/01/10 13:08:06;;;;;;;30.23;14.25;;;;;;;3.70;64.24;100584.84;10465205;28;20085;-63
2022/01/10 13:13:09;;;;;;;26.33;11.35;;;;;;;3.74;63.81;100589.88;10467635;28;20060;-64
2022/01/10 13:18:12;;;;;;;25.23;11.75;;;;;;;3.86;63.96;100599.16;10473090;28;20091;-64
2022/01/10 13:23:16;;;;;;;26.92;12.52;;;;;;;3.94;64.02;100599.00;10474138;28;20078;-63
2022/01/10 13:28:19;;;;;;;28.17;12.10;;;;;;;3.81;63.81;100619.94;10473087;28;20044;-64
2022/01/10 13:33:35;;;;;;;21.65;10.98;;;;;;;3.79;63.55;100626.00;10466286;28;20081;-64
2022/01/10 13:38:37;;;;;;;26.23;11.68;;;;;;;3.84;64.05;100632.81;10472077;28;21423;-64
2022/01/10 13:43:44;;;;;;;21.10;12.00;;;;;;;3.76;64.30;100641.63;10468839;28;20496;-64
2022/01/10 13:48:54;;;;;;;22.50;12.15;;;;;;;3.90;63.96;100639.63;10471607;28;20060;-64
2022/01/10 13:53:56;;;;;;;22.08;9.98;;;;;;;3.87;63.68;100647.44;10472569;28;20229;-63
2022/01/10 13:59:00;;;;;;;22.73;10.57;;;;;;;3.82;63.84;100641.47;10464251;28;20040;-63
2022/01/10 14:04:23;;;;;;;19.48;10.85;;;;;;;3.72;63.71;100660.66;10468353;28;20623;-63
2022/01/10 14:09:32;;;;;;;17.65;10.63;;;;;;;3.77;63.79;100669.16;10450273;28;20052;-63
2022/01/10 14:14:34;;;;;;;24.92;13.20;;;;;;;3.74;63.95;100684.78;10467275;28;20079;-63
2022/01/10 14:19:35;;;;;;;26.10;12.80;;;;;;;3.83;63.67;100684.56;10466404;28;20056;-65
2022/01/10 14:24:37;;;;;;;21.17;10.52;;;;;;;3.73;63.53;100695.97;10467317;28;20063;-63
2022/01/10 14:29:39;;;;;;;22.88;11.07;;;;;;;3.59;63.70;100710.91;10466480;28;20064;-63
2022/01/10 14:34:41;;;;;;;20.38;10.80;;;;;;;3.46;64.04;100714.59;10468570;28;20893;-63
2022/01/10 14:39:43;;;;;;;23.40;10.18;;;;;;;3.38;64.10;100713.88;10457928;28;20052;-64
2022/01/10 14:44:44;;;;;;;23.02;10.88;;;;;;;3.34;64.45;100720.84;10466339;28;20098;-63
2022/01/10 14:49:46;;;;;;;20.75;10.23;;;;;;;3.27;64.55;100734.78;10467437;28;20047;-64
2022/01/10 14:54:48;;;;;;;16.35;10.65;;;;;;;3.21;64.59;100736.63;10466377;28;20468;-64
2022/01/10 14:59:50;;;;;;;21.20;10.95;;;;;;;3.09;64.51;100753.16;10461801;28;20056;-63
2022/01/10 15:04:52;;;;;;;27.52;10.93;;;;;;;3.01;64.72;100762.78;10462350;28;20143;-64
2022/01/10 15:09:53;;;;;;;20.52;10.60;;;;;;;2.95;65.00;100766.31;10465158;28;20067;-64
2022/01/10 15:15:00;;;;;;;21.83;12.00;;;;;;;2.93;65.11;100780.97;10456484;28;20048;-64
2022/01/10 15:20:04;;;;;;;21.88;12.02;;;;;;;2.79;65.24;100782.91;10466517;28;20060;-62
2022/01/10 15:25:07;;;;;;;24.40;12.60;;;;;;;2.68;65.40;100799.47;10466383;28;20135;-63
2022/01/10 15:30:10;;;;;;;23.88;11.88;;;;;;;2.55;65.54;100803.94;10465930;28;20055;-63
2022/01/10 15:35:11;;;;;;;26.35;12.00;;;;;;;2.39;65.61;100806.72;10446172;28;20059;-63
2022/01/10 15:40:14;;;;;;;26.73;13.27;;;;;;;2.20;65.92;100821.56;10462007;28;20381;-63
2022/01/10 15:45:15;;;;;;;30.77;16.50;;;;;;;2.13;66.16;100823.38;10463665;28;20058;-63
2022/01/10 15:50:17;;;;;;;26.95;14.20;;;;;;;2.09;66.04;100838.91;10462715;28;20059;-63
2022/01/10 15:55:19;;;;;;;25.55;16.02;;;;;;;2.13;65.98;100840.59;10464060;28;20133;-63
2022/01/10 16:00:21;;;;;;;31.45;17.35;;;;;;;2.14;65.97;100838.00;10462881;28;20056;-64
2022/01/10 16:05:23;;;;;;;41.92;20.35;;;;;;;2.05;66.01;100848.41;10457845;28;20223;-63
2022/01/10 16:10:25;;;;;;;35.83;20.20;;;;;;;2.08;66.27;100866.44;10466568;28;20052;-63
2022/01/10 16:15:48;;;;;;;36.47;20.50;;;;;;;2.17;65.99;100871.47;10467480;28;20100;-64
2022/01/10 16:20:50;;;;;;;45.42;23.38;;;;;;;2.20;66.01;100894.69;10466431;28;20459;-63
2022/01/10 16:25:52;;;;;;;45.20;23.80;;;;;;;2.25;65.90;100892.06;10466772;28;20059;-63
2022/01/10 16:30:54;;;;;;;49.78;25.35;;;;;;;2.27;65.85;100892.06;10448323;28;20052;-64
2022/01/10 16:35:57;;;;;;;48.92;24.70;;;;;;;2.29;65.88;100908.38;10464694;28;20075;-63
2022/01/10 16:40:59;;;;;;;45.78;25.17;;;;;;;2.35;65.75;100929.81;10466570;28;20143;-63
2022/01/10 16:46:00;;;;;;;40.38;23.33;;;;;;;2.22;65.84;100938.53;10465573;28;20048;-63
2022/01/10 16:51:02;;;;;;;52.33;26.08;;;;;;;2.28;66.06;100941.06;10465242;28;20076;-63
2022/01/10 16:56:05;;;;;;;43.38;24.88;;;;;;;2.34;65.98;100953.91;10465558;28;20500;-63
2022/01/10 17:01:07;;;;;;;48.03;25.45;;;;;;;2.42;65.94;100969.34;10462353;28;20048;-63
2022/01/10 17:06:11;;;;;;;43.33;24.35;;;;;;;2.50;65.88;100972.69;10463721;28;20063;-64
2022/01/10 17:11:14;;;;;;;41.25;23.23;;;;;;;2.48;65.81;100979.59;10446991;28;20056;-63
2022/01/10 17:16:17;;;;;;;41.83;21.83;;;;;;;2.47;66.08;100989.06;10462484;28;20056;-64
2022/01/10 17:21:19;;;;;;;47.60;24.63;;;;;;;2.54;65.77;100998.44;10456364;28;20052;-65
2022/01/10 17:26:22;;;;;;;52.15;26.23;;;;;;;2.54;65.78;101008.78;10462427;28;20398;-65
2022/01/10 17:31:23;;;;;;;46.03;26.17;;;;;;;2.60;65.72;101013.88;10452373;28;20056;-65
2022/01/10 17:36:27;;;;;;;46.45;26.88;;;;;;;2.65;66.03;101034.50;10436412;28;20126;-65
2022/01/10 17:41:29;;;;;;;39.38;21.55;;;;;;;2.50;66.22;101038.06;10456570;28;21251;-65
2022/01/10 17:46:31;;;;;;;39.13;20.83;;;;;;;2.54;66.09;101042.34;10461324;28;20512;-65
2022/01/10 17:51:46;;;;;;;41.22;24.70;;;;;;;2.48;65.95;101047.56;10460983;28;20407;-65
2022/01/10 17:56:49;;;;;;;48.85;28.10;;;;;;;2.51;65.98;101057.00;10459009;28;20078;-65
2022/01/10 18:01:51;;;;;;;43.33;26.20;;;;;;;2.55;65.95;101066.44;10467063;28;20055;-65
2022/01/10 18:06:53;;;;;;;48.65;25.85;;;;;;;2.57;66.09;101067.28;10467352;28;20076;-65
2022/01/10 18:11:54;;;;;;;40.83;25.35;;;;;;;2.57;65.76;101073.31;10471641;28;20143;-65
2022/01/10 18:16:58;;;;;;;52.60;28.42;;;;;;;2.67;66.03;101081.81;10465005;28;20057;-65
2022/01/10 18:22:00;;;;;;;46.85;25.77;;;;;;;2.69;65.76;101080.94;10461475;28;20056;-65
2022/01/10 18:27:02;;;;;;;48.13;25.65;;;;;;;2.60;65.55;101088.75;10465095;28;20053;-65
2022/01/10 18:32:05;;;;;;;44.78;25.50;;;;;;;2.53;65.71;101099.16;10468939;28;20139;-65
2022/01/10 18:37:07;;;;;;;54.63;26.88;;;;;;;2.59;65.92;101102.56;10465131;28;20067;-65
2022/01/10 18:42:08;;;;;;;46.38;26.75;;;;;;;2.58;66.06;101098.25;10464945;28;20855;-65
2022/01/10 18:47:11;;;;;;;52.40;29.23;;;;;;;2.58;65.76;101100.84;10467777;28;20488;-64
2022/01/10 18:52:13;;;;;;;49.85;27.58;;;;;;;2.56;65.99;101102.56;10469416;28;20052;-65
2022/01/10 18:57:20;;;;;;;43.63;27.05;;;;;;;2.61;65.90;101120.63;10468908;28;20139;-65
2022/01/10 19:02:24;;;;;;;48.95;27.13;;;;;;;2.45;65.78;101131.94;10470220;28;20135;-65
2022/01/10 19:07:27;;;;;;;46.83;24.48;;;;;;;2.41;65.95;101138.88;10449481;28;20075;-64
2022/01/10 19:12:29;;;;;;;47.47;26.45;;;;;;;2.47;66.02;101140.53;10468725;28;20056;-65
2022/01/10 19:17:35;;;;;;;45.45;25.80;;;;;;;2.53;65.89;101143.06;10469310;28;20078;-65
2022/01/10 19:22:37;;;;;;;45.05;26.10;;;;;;;2.48;65.91;101142.25;10469144;28;20114;-65
2022/01/10 19:27:40;;;;;;;45.47;25.98;;;;;;;2.41;65.97;101146.59;10469235;28;20052;-65
2022/01/10 19:32:43;;;;;;;43.75;26.77;;;;;;;2.32;66.24;101151.81;10468792;28;20061;-65
2022/01/10 19:37:46;;;;;;;45.20;25.30;;;;;;;2.28;66.29;101168.19;10450714;28;20091;-65
2022/01/10 19:42:48;;;;;;;43.38;24.77;;;;;;;2.27;66.32;101166.50;10468852;28;20080;-64
2022/01/10 19:47:51;;;;;;;45.45;25.45;;;;;;;2.27;66.40;101165.63;10468378;28;20177;-65
2022/01/10 19:52:53;;;;;;;47.20;26.02;;;;;;;2.20;66.31;101167.38;10450014;28;20956;-65
2022/01/10 19:57:54;;;;;;;42.47;23.27;;;;;;;2.12;66.30;101169.16;10468455;28;20239;-64
2022/01/10 20:02:56;;;;;;;39.35;23.00;;;;;;;1.91;66.92;101177.03;10467690;28;20829;-65
2022/01/10 20:08:03;;;;;;;53.33;26.92;;;;;;;2.05;67.05;101173.50;10464812;28;20265;-65
2022/01/10 20:13:06;;;;;;;47.80;26.85;;;;;;;2.02;66.82;101181.25;10465939;28;20143;-65
2022/01/10 20:18:08;;;;;;;49.42;28.13;;;;;;;2.11;66.89;101182.94;10467526;28;20056;-64
2022/01/10 20:23:10;;;;;;;58.80;30.42;;;;;;;2.05;66.83;101183.81;10467061;28;20449;-65
2022/01/10 20:28:12;;;;;;;51.65;30.38;;;;;;;1.98;67.20;101189.88;10467024;28;20066;-65
2022/01/10 20:33:14;;;;;;;54.58;29.55;;;;;;;2.05;66.71;101191.56;10464925;28;20981;-65
2022/01/10 20:38:16;;;;;;;54.72;29.08;;;;;;;2.04;66.78;101204.47;10464704;28;20048;-65
2022/01/10 20:43:20;;;;;;;62.33;33.50;;;;;;;1.99;66.82;101209.66;10447299;28;20088;-64
2022/01/10 20:48:27;;;;;;;59.90;32.30;;;;;;;1.99;66.90;101217.38;10448243;28;20091;-65
2022/01/10 20:53:31;;;;;;;71.32;34.53;;;;;;;2.04;67.05;101217.38;10464404;28;20055;-65
2022/01/10 20:58:33;;;;;;;64.05;32.03;;;;;;;2.10;66.81;101222.50;10466050;28;20064;-64
2022/01/10 21:03:35;;;;;;;91.60;37.17;;;;;;;2.13;66.91;101232.81;10447624;28;20048;-65
2022/01/10 21:08:38;;;;;;;73.18;33.50;;;;;;;2.14;66.90;101234.53;10461922;28;20377;-65
2022/01/10 21:13:43;;;;;;;85.00;32.20;;;;;;;2.12;66.92;101242.28;10464613;28;20970;-65
2022/01/10 21:18:47;;;;;;;114.82;34.38;;;;;;;2.07;66.91;101249.16;10464898;28;20052;-65
2022/01/10 21:23:49;;;;;;;62.50;29.90;;;;;;;2.09;66.99;101244.03;10464993;28;20052;-65
2022/01/10 21:28:52;;;;;;;93.47;35.33;;;;;;;2.10;67.02;101246.59;10464637;28;20135;-66
2022/01/10 21:34:07;;;;;;;102.18;38.22;;;;;;;1.83;67.10;101254.41;10467056;28;20053;-65
2022/01/10 21:39:10;;;;;;;120.20;35.85;;;;;;;1.85;67.47;101257.84;10473282;28;20052;-65
2022/01/10 21:44:12;;;;;;;98.88;35.75;;;;;;;1.84;67.23;101260.44;10473045;28;20064;-65
2022/01/10 21:49:13;;;;;;;90.35;35.92;;;;;;;1.60;67.53;101268.25;10471988;28;20136;-65
2022/01/10 21:54:15;;;;;;;129.93;37.55;;;;;;;1.41;67.92;101274.28;10471909;28;20056;-65
2022/01/10 21:59:20;;;;;;;162.60;39.88;;;;;;;1.38;68.12;101269.16;10471560;28;20570;-65
2022/01/10 22:04:22;;;;;;;82.28;34.40;;;;;;;1.32;68.49;101270.88;10471435;28;20120;-66
2022/01/10 22:09:24;;;;;;;80.53;34.28;;;;;;;1.37;68.56;101268.28;10450982;28;20535;-65
2022/01/10 22:14:26;;;;;;;154.30;37.60;;;;;;;1.48;68.16;101282.03;10471669;28;20149;-65
2022/01/10 22:19:28;;;;;;;93.82;33.63;;;;;;;1.36;68.31;101280.31;10470282;28;20439;-65
2022/01/10 22:24:30;;;;;;;317.75;42.72;;;;;;;1.32;68.25;101286.31;10453920;28;20110;-65
2022/01/10 22:29:34;;;;;;;183.30;34.83;;;;;;;1.28;68.57;101291.47;10471411;28;20143;-65
2022/01/10 22:34:37;;;;;;;179.85;34.22;;;;;;;1.27;68.53;101292.34;10470510;28;20067;-65
2022/01/10 22:39:38;;;;;;;149.68;34.95;;;;;;;1.38;68.39;101296.63;10470264;28;20081;-64
2022/01/10 22:44:40;;;;;;;76.28;29.52;;;;;;;1.53;68.46;101300.91;10468514;28;20084;-65
2022/01/10 22:49:42;;;;;;;225.18;36.35;;;;;;;1.48;68.04;101299.22;10452058;28;20048;-65
2022/01/10 22:54:44;;;;;;;136.02;34.03;;;;;;;1.35;68.39;101295.78;10470227;28;20464;-65
2022/01/10 22:59:46;;;;;;;158.07;36.80;;;;;;;1.41;68.48;101294.91;10444975;28;20156;-65
2022/01/10 23:04:47;;;;;;;157.82;36.47;;;;;;;1.56;68.05;101300.06;10468754;28;20052;-65
2022/01/10 23:09:49;;;;;;;201.85;37.25;;;;;;;1.55;68.09;101306.06;10457502;28;20928;-65
2022/01/10 23:14:51;;;;;;;247.60;36.47;;;;;;;1.51;68.16;101305.22;10464030;28;20070;-65